sensor_id;sensor_type;location;lat;lon;timestamp;P1;durP1;ratioP1;P2;durP2;ratioP2
20423;SDS011;10371;49.042;8.002;2024-01-15T00:00:27;24.03;;;16.73;;
20423;SDS011;10371;49.042;8.002;2024-01-15T00:01:27;26.57;;;18.30;;
20423;SDS011;10371;49.042;8.002;2024-01-15T00:02:27;23.47;;;16.90;;
20423;SDS011;10371;49.042;8.002;2024-01-15T00:03:27;26.10;;;17.87;;
20423;SDS011;10371;49.042;8.002;2024-01-15T00:04:28;26.67;;;17.00;;
20423;SDS011;10371;49.042;8.002;2024-01-15T00:05:28;25.90;;;17.47;;
20423;SDS011;10371;49.042;8.002;2024-01-15T00:06:28;25.60;;;17.43;;
20423;SDS011;10371;49.042;8.002;2024-01-15T00:07:28;24.77;;;17.67;;
20423;SDS011;10371;49.042;8.002;2024-01-15T00:08:29;23.70;;;16.30;;
20423;SDS011;10371;49.042;8.002;2024-01-15T00:09:29;24.33;;;16.23;;
20423;SDS011;10371;49.042;8.002;2024-01-15T00:10:29;25.60;;;16.73;;
20423;SDS011;10371;49.042;8.002;2024-01-15T00:11:29;26.70;;;17.60;;
20423;SDS011;10371;49.042;8.002;2024-01-15T00:12:30;28.07;;;19.63;;
20423;SDS011;10371;49.042;8.002;2024-01-15T00:13:30;26.93;;;17.97;;
20423;SDS011;10371;49.042;8.002;2024-01-15T00:14:30;23.07;;;16.23;;
20423;SDS011;10371;49.042;8.002;2024-01-15T00:15:30;24.47;;;17.27;;
20423;SDS011;10371;49.042;8.002;2024-01-15T00:16:31;24.23;;;17.10;;
20423;SDS011;10371;49.042;8.002;2024-01-15T00:17:31;22.87;;;16.03;;
20423;SDS011;10371;49.042;8.002;2024-01-15T00:18:31;25.00;;;17.03;;
20423;SDS011;10371;49.042;8.002;2024-01-15T00:19:32;24.53;;;18.53;;
20423;SDS011;10371;49.042;8.002;2024-01-15T00:20:32;20.40;;;15.27;;
20423;SDS011;10371;49.042;8.002;2024-01-15T00:21:32;26.07;;;16.50;;
20423;SDS011;10371;49.042;8.002;2024-01-15T00:22:32;24.97;;;17.67;;
20423;SDS011;10371;49.042;8.002;2024-01-15T00:23:35;23.63;;;15.10;;
20423;SDS011;10371;49.042;8.002;2024-01-15T00:24:35;28.97;;;20.30;;
20423;SDS011;10371;49.042;8.002;2024-01-15T00:25:35;24.30;;;16.63;;
20423;SDS011;10371;49.042;8.002;2024-01-15T00:26:36;24.17;;;17.00;;
20423;SDS011;10371;49.042;8.002;2024-01-15T00:27:36;21.97;;;15.67;;
20423;SDS011;10371;49.042;8.002;2024-01-15T00:28:37;23.00;;;16.20;;
20423;SDS011;10371;49.042;8.002;2024-01-15T00:29:38;23.97;;;17.90;;
20423;SDS011;10371;49.042;8.002;2024-01-15T00:30:38;22.17;;;16.43;;
20423;SDS011;10371;49.042;8.002;2024-01-15T00:31:38;24.77;;;16.57;;
20423;SDS011;10371;49.042;8.002;2024-01-15T00:32:38;22.07;;;16.13;;
20423;SDS011;10371;49.042;8.002;2024-01-15T00:33:39;22.47;;;15.63;;
20423;SDS011;10371;49.042;8.002;2024-01-15T00:34:39;22.80;;;17.87;;
20423;SDS011;10371;49.042;8.002;2024-01-15T00:35:39;22.80;;;15.93;;
20423;SDS011;10371;49.042;8.002;2024-01-15T00:36:39;20.73;;;15.63;;
20423;SDS011;10371;49.042;8.002;2024-01-15T00:37:40;21.97;;;14.67;;
20423;SDS011;10371;49.042;8.002;2024-01-15T00:38:40;18.43;;;12.90;;
20423;SDS011;10371;49.042;8.002;2024-01-15T00:39:40;19.70;;;12.87;;
20423;SDS011;10371;49.042;8.002;2024-01-15T00:40:40;17.50;;;12.80;;
20423;SDS011;10371;49.042;8.002;2024-01-15T00:41:41;20.17;;;13.23;;
20423;SDS011;10371;49.042;8.002;2024-01-15T00:42:42;21.80;;;13.23;;
20423;SDS011;10371;49.042;8.002;2024-01-15T00:43:43;18.00;;;11.87;;
20423;SDS011;10371;49.042;8.002;2024-01-15T00:44:43;18.83;;;12.73;;
20423;SDS011;10371;49.042;8.002;2024-01-15T00:45:43;19.13;;;12.43;;
20423;SDS011;10371;49.042;8.002;2024-01-15T00:46:44;19.83;;;12.80;;
20423;SDS011;10371;49.042;8.002;2024-01-15T00:47:48;20.30;;;13.00;;
20423;SDS011;10371;49.042;8.002;2024-01-15T00:48:48;19.47;;;13.33;;
20423;SDS011;10371;49.042;8.002;2024-01-15T00:49:49;19.57;;;14.43;;
20423;SDS011;10371;49.042;8.002;2024-01-15T00:50:49;20.30;;;14.50;;
20423;SDS011;10371;49.042;8.002;2024-01-15T00:51:49;21.73;;;15.40;;
20423;SDS011;10371;49.042;8.002;2024-01-15T00:52:49;23.60;;;18.40;;
20423;SDS011;10371;49.042;8.002;2024-01-15T00:53:50;22.13;;;15.77;;
20423;SDS011;10371;49.042;8.002;2024-01-15T00:54:50;22.70;;;17.23;;
20423;SDS011;10371;49.042;8.002;2024-01-15T00:55:50;20.73;;;13.80;;
20423;SDS011;10371;49.042;8.002;2024-01-15T00:56:50;20.67;;;15.00;;
20423;SDS011;10371;49.042;8.002;2024-01-15T00:57:51;20.60;;;15.50;;
20423;SDS011;10371;49.042;8.002;2024-01-15T00:58:51;23.00;;;16.77;;
20423;SDS011;10371;49.042;8.002;2024-01-15T00:59:51;20.90;;;15.03;;
20423;SDS011;10371;49.042;8.002;2024-01-15T01:00:51;20.40;;;14.57;;
20423;SDS011;10371;49.042;8.002;2024-01-15T01:01:52;19.33;;;14.77;;
20423;SDS011;10371;49.042;8.002;2024-01-15T01:02:52;20.07;;;14.53;;
20423;SDS011;10371;49.042;8.002;2024-01-15T01:03:52;20.27;;;15.13;;
20423;SDS011;10371;49.042;8.002;2024-01-15T01:04:52;22.97;;;16.67;;
20423;SDS011;10371;49.042;8.002;2024-01-15T01:05:53;22.77;;;17.77;;
20423;SDS011;10371;49.042;8.002;2024-01-15T01:06:53;19.43;;;15.23;;
20423;SDS011;10371;49.042;8.002;2024-01-15T01:07:53;20.20;;;14.60;;
20423;SDS011;10371;49.042;8.002;2024-01-15T01:08:53;18.97;;;14.50;;
20423;SDS011;10371;49.042;8.002;2024-01-15T01:09:54;21.57;;;16.10;;
20423;SDS011;10371;49.042;8.002;2024-01-15T01:10:55;22.23;;;16.67;;
20423;SDS011;10371;49.042;8.002;2024-01-15T01:11:56;23.67;;;17.70;;
20423;SDS011;10371;49.042;8.002;2024-01-15T01:12:56;19.90;;;15.80;;
20423;SDS011;10371;49.042;8.002;2024-01-15T01:13:56;19.20;;;16.23;;
20423;SDS011;10371;49.042;8.002;2024-01-15T01:14:57;20.50;;;14.23;;
20423;SDS011;10371;49.042;8.002;2024-01-15T01:15:57;18.73;;;13.13;;
20423;SDS011;10371;49.042;8.002;2024-01-15T01:16:58;18.83;;;14.00;;
20423;SDS011;10371;49.042;8.002;2024-01-15T01:17:58;19.63;;;14.10;;
20423;SDS011;10371;49.042;8.002;2024-01-15T01:18:58;19.63;;;14.67;;
20423;SDS011;10371;49.042;8.002;2024-01-15T01:19:58;20.33;;;15.30;;
20423;SDS011;10371;49.042;8.002;2024-01-15T01:20:58;18.07;;;14.97;;
20423;SDS011;10371;49.042;8.002;2024-01-15T01:21:59;20.93;;;16.67;;
20423;SDS011;10371;49.042;8.002;2024-01-15T01:22:59;18.83;;;15.27;;
20423;SDS011;10371;49.042;8.002;2024-01-15T01:23:59;17.83;;;12.80;;
20423;SDS011;10371;49.042;8.002;2024-01-15T01:25:00;18.27;;;13.60;;
20423;SDS011;10371;49.042;8.002;2024-01-15T01:26:00;17.83;;;13.10;;
20423;SDS011;10371;49.042;8.002;2024-01-15T01:27:00;17.50;;;11.93;;
20423;SDS011;10371;49.042;8.002;2024-01-15T01:28:00;17.23;;;12.60;;
20423;SDS011;10371;49.042;8.002;2024-01-15T01:29:01;17.23;;;13.00;;
20423;SDS011;10371;49.042;8.002;2024-01-15T01:30:01;17.03;;;12.10;;
20423;SDS011;10371;49.042;8.002;2024-01-15T01:31:01;17.67;;;12.70;;
20423;SDS011;10371;49.042;8.002;2024-01-15T01:32:02;18.97;;;13.67;;
20423;SDS011;10371;49.042;8.002;2024-01-15T01:33:02;18.70;;;13.10;;
20423;SDS011;10371;49.042;8.002;2024-01-15T01:34:03;17.80;;;13.83;;
20423;SDS011;10371;49.042;8.002;2024-01-15T01:35:03;21.87;;;18.13;;
20423;SDS011;10371;49.042;8.002;2024-01-15T01:36:06;17.87;;;15.57;;
20423;SDS011;10371;49.042;8.002;2024-01-15T01:37:08;18.80;;;15.13;;
20423;SDS011;10371;49.042;8.002;2024-01-15T01:38:08;18.97;;;15.37;;
20423;SDS011;10371;49.042;8.002;2024-01-15T01:39:09;17.50;;;13.80;;
20423;SDS011;10371;49.042;8.002;2024-01-15T01:40:09;19.50;;;15.47;;
20423;SDS011;10371;49.042;8.002;2024-01-15T01:41:10;20.10;;;16.97;;
20423;SDS011;10371;49.042;8.002;2024-01-15T01:42:11;20.20;;;17.90;;
20423;SDS011;10371;49.042;8.002;2024-01-15T01:43:12;20.77;;;18.57;;
20423;SDS011;10371;49.042;8.002;2024-01-15T01:44:12;21.00;;;16.27;;
20423;SDS011;10371;49.042;8.002;2024-01-15T01:45:12;17.20;;;14.30;;
20423;SDS011;10371;49.042;8.002;2024-01-15T01:46:12;17.00;;;12.70;;
20423;SDS011;10371;49.042;8.002;2024-01-15T01:47:13;21.47;;;18.10;;
20423;SDS011;10371;49.042;8.002;2024-01-15T01:48:14;19.20;;;16.50;;
20423;SDS011;10371;49.042;8.002;2024-01-15T01:49:14;14.90;;;12.67;;
20423;SDS011;10371;49.042;8.002;2024-01-15T01:50:15;16.63;;;12.47;;
20423;SDS011;10371;49.042;8.002;2024-01-15T01:51:16;17.47;;;12.47;;
20423;SDS011;10371;49.042;8.002;2024-01-15T01:52:16;16.93;;;12.80;;
20423;SDS011;10371;49.042;8.002;2024-01-15T01:53:17;16.90;;;11.73;;
20423;SDS011;10371;49.042;8.002;2024-01-15T01:54:17;15.93;;;11.97;;
20423;SDS011;10371;49.042;8.002;2024-01-15T01:55:18;15.87;;;11.37;;
20423;SDS011;10371;49.042;8.002;2024-01-15T01:56:20;15.90;;;11.37;;
20423;SDS011;10371;49.042;8.002;2024-01-15T01:57:20;15.10;;;11.57;;
20423;SDS011;10371;49.042;8.002;2024-01-15T01:58:21;16.27;;;12.13;;
20423;SDS011;10371;49.042;8.002;2024-01-15T01:59:21;17.73;;;12.63;;
20423;SDS011;10371;49.042;8.002;2024-01-15T02:00:23;16.90;;;12.60;;
20423;SDS011;10371;49.042;8.002;2024-01-15T02:01:24;17.63;;;12.00;;
20423;SDS011;10371;49.042;8.002;2024-01-15T02:02:24;16.17;;;11.67;;
20423;SDS011;10371;49.042;8.002;2024-01-15T02:03:25;16.37;;;12.17;;
20423;SDS011;10371;49.042;8.002;2024-01-15T02:04:27;15.47;;;11.83;;
20423;SDS011;10371;49.042;8.002;2024-01-15T02:05:28;17.57;;;12.57;;
20423;SDS011;10371;49.042;8.002;2024-01-15T02:06:28;17.57;;;12.37;;
20423;SDS011;10371;49.042;8.002;2024-01-15T02:07:29;17.40;;;12.60;;
20423;SDS011;10371;49.042;8.002;2024-01-15T02:08:29;17.73;;;13.03;;
20423;SDS011;10371;49.042;8.002;2024-01-15T02:09:30;17.60;;;12.63;;
20423;SDS011;10371;49.042;8.002;2024-01-15T02:10:32;17.03;;;12.13;;
20423;SDS011;10371;49.042;8.002;2024-01-15T02:11:32;18.43;;;12.87;;
20423;SDS011;10371;49.042;8.002;2024-01-15T02:12:32;16.73;;;12.87;;
20423;SDS011;10371;49.042;8.002;2024-01-15T02:13:33;15.60;;;11.90;;
20423;SDS011;10371;49.042;8.002;2024-01-15T02:14:33;18.43;;;12.30;;
20423;SDS011;10371;49.042;8.002;2024-01-15T02:15:33;17.40;;;11.93;;
20423;SDS011;10371;49.042;8.002;2024-01-15T02:16:34;16.37;;;12.67;;
20423;SDS011;10371;49.042;8.002;2024-01-15T02:17:34;19.60;;;13.77;;
20423;SDS011;10371;49.042;8.002;2024-01-15T02:18:40;18.30;;;13.03;;
20423;SDS011;10371;49.042;8.002;2024-01-15T02:19:41;15.70;;;12.57;;
20423;SDS011;10371;49.042;8.002;2024-01-15T02:20:42;16.10;;;12.10;;
20423;SDS011;10371;49.042;8.002;2024-01-15T02:21:44;16.10;;;11.20;;
20423;SDS011;10371;49.042;8.002;2024-01-15T02:22:44;17.60;;;12.93;;
20423;SDS011;10371;49.042;8.002;2024-01-15T02:23:44;17.90;;;13.27;;
20423;SDS011;10371;49.042;8.002;2024-01-15T02:24:45;17.40;;;12.43;;
20423;SDS011;10371;49.042;8.002;2024-01-15T02:25:46;14.40;;;11.30;;
20423;SDS011;10371;49.042;8.002;2024-01-15T02:26:46;16.93;;;12.50;;
20423;SDS011;10371;49.042;8.002;2024-01-15T02:27:47;16.13;;;11.77;;
20423;SDS011;10371;49.042;8.002;2024-01-15T02:28:47;14.93;;;11.53;;
20423;SDS011;10371;49.042;8.002;2024-01-15T02:29:48;14.90;;;11.57;;
20423;SDS011;10371;49.042;8.002;2024-01-15T02:30:49;16.30;;;11.07;;
20423;SDS011;10371;49.042;8.002;2024-01-15T02:31:49;15.80;;;11.57;;
20423;SDS011;10371;49.042;8.002;2024-01-15T02:32:49;16.23;;;11.67;;
20423;SDS011;10371;49.042;8.002;2024-01-15T02:33:50;16.60;;;11.97;;
20423;SDS011;10371;49.042;8.002;2024-01-15T02:34:50;15.27;;;11.60;;
20423;SDS011;10371;49.042;8.002;2024-01-15T02:35:50;14.23;;;11.23;;
20423;SDS011;10371;49.042;8.002;2024-01-15T02:36:51;14.57;;;11.93;;
20423;SDS011;10371;49.042;8.002;2024-01-15T02:37:51;16.23;;;11.63;;
20423;SDS011;10371;49.042;8.002;2024-01-15T02:38:51;14.83;;;10.97;;
20423;SDS011;10371;49.042;8.002;2024-01-15T02:39:52;15.17;;;11.07;;
20423;SDS011;10371;49.042;8.002;2024-01-15T02:40:52;15.70;;;11.27;;
20423;SDS011;10371;49.042;8.002;2024-01-15T02:41:52;16.63;;;11.70;;
20423;SDS011;10371;49.042;8.002;2024-01-15T02:42:53;15.50;;;11.07;;
20423;SDS011;10371;49.042;8.002;2024-01-15T02:43:53;15.53;;;11.53;;
20423;SDS011;10371;49.042;8.002;2024-01-15T02:44:53;15.43;;;11.13;;
20423;SDS011;10371;49.042;8.002;2024-01-15T02:45:53;15.63;;;12.07;;
20423;SDS011;10371;49.042;8.002;2024-01-15T02:46:54;15.23;;;11.47;;
20423;SDS011;10371;49.042;8.002;2024-01-15T02:47:54;16.40;;;11.23;;
20423;SDS011;10371;49.042;8.002;2024-01-15T02:48:54;16.43;;;11.60;;
20423;SDS011;10371;49.042;8.002;2024-01-15T02:49:54;15.63;;;11.47;;
20423;SDS011;10371;49.042;8.002;2024-01-15T02:50:55;17.47;;;11.10;;
20423;SDS011;10371;49.042;8.002;2024-01-15T02:51:55;15.50;;;10.80;;
20423;SDS011;10371;49.042;8.002;2024-01-15T02:52:55;15.80;;;11.13;;
20423;SDS011;10371;49.042;8.002;2024-01-15T02:53:55;17.87;;;11.20;;
20423;SDS011;10371;49.042;8.002;2024-01-15T02:54:56;16.27;;;10.70;;
20423;SDS011;10371;49.042;8.002;2024-01-15T02:55:56;15.90;;;11.17;;
20423;SDS011;10371;49.042;8.002;2024-01-15T02:56:56;14.43;;;10.50;;
20423;SDS011;10371;49.042;8.002;2024-01-15T02:57:57;16.40;;;12.10;;
20423;SDS011;10371;49.042;8.002;2024-01-15T02:58:57;15.33;;;11.33;;
20423;SDS011;10371;49.042;8.002;2024-01-15T02:59:57;17.00;;;11.30;;
20423;SDS011;10371;49.042;8.002;2024-01-15T03:00:57;15.83;;;11.43;;
20423;SDS011;10371;49.042;8.002;2024-01-15T03:01:58;15.90;;;11.03;;
20423;SDS011;10371;49.042;8.002;2024-01-15T03:02:58;16.53;;;11.20;;
20423;SDS011;10371;49.042;8.002;2024-01-15T03:03:58;16.97;;;11.37;;
20423;SDS011;10371;49.042;8.002;2024-01-15T03:04:58;16.87;;;11.60;;
20423;SDS011;10371;49.042;8.002;2024-01-15T03:05:59;16.40;;;12.10;;
20423;SDS011;10371;49.042;8.002;2024-01-15T03:06:59;16.20;;;11.60;;
20423;SDS011;10371;49.042;8.002;2024-01-15T03:07:59;14.67;;;10.43;;
20423;SDS011;10371;49.042;8.002;2024-01-15T03:09:00;15.27;;;11.50;;
20423;SDS011;10371;49.042;8.002;2024-01-15T03:10:00;15.63;;;11.13;;
20423;SDS011;10371;49.042;8.002;2024-01-15T03:11:00;15.77;;;11.30;;
20423;SDS011;10371;49.042;8.002;2024-01-15T03:12:01;16.13;;;11.63;;
20423;SDS011;10371;49.042;8.002;2024-01-15T03:13:01;18.07;;;12.20;;
20423;SDS011;10371;49.042;8.002;2024-01-15T03:14:01;14.50;;;10.57;;
20423;SDS011;10371;49.042;8.002;2024-01-15T03:15:02;15.03;;;11.13;;
20423;SDS011;10371;49.042;8.002;2024-01-15T03:16:03;16.50;;;10.93;;
20423;SDS011;10371;49.042;8.002;2024-01-15T03:17:04;15.57;;;11.17;;
20423;SDS011;10371;49.042;8.002;2024-01-15T03:18:05;14.80;;;10.80;;
20423;SDS011;10371;49.042;8.002;2024-01-15T03:19:05;14.80;;;10.90;;
20423;SDS011;10371;49.042;8.002;2024-01-15T03:20:06;15.00;;;10.77;;
20423;SDS011;10371;49.042;8.002;2024-01-15T03:21:07;15.23;;;10.90;;
20423;SDS011;10371;49.042;8.002;2024-01-15T03:22:07;15.77;;;11.50;;
20423;SDS011;10371;49.042;8.002;2024-01-15T03:23:08;15.57;;;10.47;;
20423;SDS011;10371;49.042;8.002;2024-01-15T03:24:09;15.67;;;10.93;;
20423;SDS011;10371;49.042;8.002;2024-01-15T03:25:09;15.27;;;11.70;;
20423;SDS011;10371;49.042;8.002;2024-01-15T03:26:09;17.37;;;11.60;;
20423;SDS011;10371;49.042;8.002;2024-01-15T03:27:09;15.23;;;11.20;;
20423;SDS011;10371;49.042;8.002;2024-01-15T03:28:10;16.47;;;11.47;;
20423;SDS011;10371;49.042;8.002;2024-01-15T03:29:10;16.77;;;11.03;;
20423;SDS011;10371;49.042;8.002;2024-01-15T03:30:10;16.60;;;11.33;;
20423;SDS011;10371;49.042;8.002;2024-01-15T03:31:11;16.93;;;11.53;;
20423;SDS011;10371;49.042;8.002;2024-01-15T03:32:11;14.67;;;10.83;;
20423;SDS011;10371;49.042;8.002;2024-01-15T03:33:12;15.10;;;11.13;;
20423;SDS011;10371;49.042;8.002;2024-01-15T03:34:12;16.67;;;12.20;;
20423;SDS011;10371;49.042;8.002;2024-01-15T03:35:12;15.50;;;11.17;;
20423;SDS011;10371;49.042;8.002;2024-01-15T03:36:13;16.57;;;11.40;;
20423;SDS011;10371;49.042;8.002;2024-01-15T03:37:13;17.10;;;12.07;;
20423;SDS011;10371;49.042;8.002;2024-01-15T03:38:14;17.40;;;11.73;;
20423;SDS011;10371;49.042;8.002;2024-01-15T03:39:14;15.87;;;11.83;;
20423;SDS011;10371;49.042;8.002;2024-01-15T03:40:14;16.60;;;11.33;;
20423;SDS011;10371;49.042;8.002;2024-01-15T03:41:14;15.83;;;11.67;;
20423;SDS011;10371;49.042;8.002;2024-01-15T03:42:15;14.53;;;10.90;;
20423;SDS011;10371;49.042;8.002;2024-01-15T03:43:15;15.73;;;11.80;;
20423;SDS011;10371;49.042;8.002;2024-01-15T03:44:16;18.03;;;12.00;;
20423;SDS011;10371;49.042;8.002;2024-01-15T03:45:16;15.80;;;11.50;;
20423;SDS011;10371;49.042;8.002;2024-01-15T03:46:16;15.67;;;10.70;;
20423;SDS011;10371;49.042;8.002;2024-01-15T03:47:17;15.93;;;11.80;;
20423;SDS011;10371;49.042;8.002;2024-01-15T03:48:17;16.43;;;11.20;;
20423;SDS011;10371;49.042;8.002;2024-01-15T03:49:17;15.17;;;11.33;;
20423;SDS011;10371;49.042;8.002;2024-01-15T03:50:17;14.67;;;11.07;;
20423;SDS011;10371;49.042;8.002;2024-01-15T03:51:17;16.83;;;11.90;;
20423;SDS011;10371;49.042;8.002;2024-01-15T03:52:18;16.43;;;11.37;;
20423;SDS011;10371;49.042;8.002;2024-01-15T03:53:18;15.10;;;11.03;;
20423;SDS011;10371;49.042;8.002;2024-01-15T03:54:19;15.90;;;11.50;;
20423;SDS011;10371;49.042;8.002;2024-01-15T03:55:19;14.10;;;10.47;;
20423;SDS011;10371;49.042;8.002;2024-01-15T03:56:19;15.13;;;11.47;;
20423;SDS011;10371;49.042;8.002;2024-01-15T03:57:19;15.47;;;11.03;;
20423;SDS011;10371;49.042;8.002;2024-01-15T03:58:20;15.77;;;10.90;;
20423;SDS011;10371;49.042;8.002;2024-01-15T03:59:20;16.20;;;11.33;;
20423;SDS011;10371;49.042;8.002;2024-01-15T04:00:20;15.87;;;11.00;;
20423;SDS011;10371;49.042;8.002;2024-01-15T04:01:21;18.23;;;11.33;;
20423;SDS011;10371;49.042;8.002;2024-01-15T04:02:21;16.53;;;11.70;;
20423;SDS011;10371;49.042;8.002;2024-01-15T04:03:21;15.07;;;10.60;;
20423;SDS011;10371;49.042;8.002;2024-01-15T04:04:21;15.20;;;10.73;;
20423;SDS011;10371;49.042;8.002;2024-01-15T04:05:22;17.80;;;11.57;;
20423;SDS011;10371;49.042;8.002;2024-01-15T04:06:22;14.37;;;11.17;;
20423;SDS011;10371;49.042;8.002;2024-01-15T04:07:22;16.63;;;11.90;;
20423;SDS011;10371;49.042;8.002;2024-01-15T04:08:22;16.93;;;11.77;;
20423;SDS011;10371;49.042;8.002;2024-01-15T04:09:23;16.90;;;11.47;;
20423;SDS011;10371;49.042;8.002;2024-01-15T04:10:23;14.47;;;10.73;;
20423;SDS011;10371;49.042;8.002;2024-01-15T04:11:23;15.87;;;11.10;;
20423;SDS011;10371;49.042;8.002;2024-01-15T04:12:23;14.90;;;10.90;;
20423;SDS011;10371;49.042;8.002;2024-01-15T04:13:24;16.43;;;11.37;;
20423;SDS011;10371;49.042;8.002;2024-01-15T04:14:25;15.27;;;11.20;;
20423;SDS011;10371;49.042;8.002;2024-01-15T04:15:25;16.63;;;11.80;;
20423;SDS011;10371;49.042;8.002;2024-01-15T04:16:25;14.97;;;11.60;;
20423;SDS011;10371;49.042;8.002;2024-01-15T04:17:26;17.57;;;11.60;;
20423;SDS011;10371;49.042;8.002;2024-01-15T04:18:27;16.00;;;11.13;;
20423;SDS011;10371;49.042;8.002;2024-01-15T04:19:27;15.50;;;11.27;;
20423;SDS011;10371;49.042;8.002;2024-01-15T04:20:27;15.63;;;11.77;;
20423;SDS011;10371;49.042;8.002;2024-01-15T04:21:27;16.30;;;11.77;;
20423;SDS011;10371;49.042;8.002;2024-01-15T04:22:28;17.07;;;11.67;;
20423;SDS011;10371;49.042;8.002;2024-01-15T04:23:28;16.83;;;11.70;;
20423;SDS011;10371;49.042;8.002;2024-01-15T04:24:28;15.90;;;10.83;;
20423;SDS011;10371;49.042;8.002;2024-01-15T04:25:28;14.97;;;10.77;;
20423;SDS011;10371;49.042;8.002;2024-01-15T04:26:29;16.57;;;12.07;;
20423;SDS011;10371;49.042;8.002;2024-01-15T04:27:29;15.60;;;11.17;;
20423;SDS011;10371;49.042;8.002;2024-01-15T04:28:29;15.07;;;11.50;;
20423;SDS011;10371;49.042;8.002;2024-01-15T04:29:29;15.67;;;11.70;;
20423;SDS011;10371;49.042;8.002;2024-01-15T04:30:30;14.87;;;10.53;;
20423;SDS011;10371;49.042;8.002;2024-01-15T04:31:30;16.43;;;11.17;;
20423;SDS011;10371;49.042;8.002;2024-01-15T04:32:30;15.07;;;10.80;;
20423;SDS011;10371;49.042;8.002;2024-01-15T04:33:30;16.40;;;11.40;;
20423;SDS011;10371;49.042;8.002;2024-01-15T04:34:31;15.73;;;11.03;;
20423;SDS011;10371;49.042;8.002;2024-01-15T04:35:31;14.87;;;11.50;;
20423;SDS011;10371;49.042;8.002;2024-01-15T04:36:38;15.93;;;11.30;;
20423;SDS011;10371;49.042;8.002;2024-01-15T04:37:39;16.50;;;11.73;;
20423;SDS011;10371;49.042;8.002;2024-01-15T04:38:40;15.30;;;10.73;;
20423;SDS011;10371;49.042;8.002;2024-01-15T04:39:40;15.70;;;11.23;;
20423;SDS011;10371;49.042;8.002;2024-01-15T04:40:40;15.00;;;11.73;;
20423;SDS011;10371;49.042;8.002;2024-01-15T04:41:40;14.77;;;10.93;;
20423;SDS011;10371;49.042;8.002;2024-01-15T04:42:41;16.00;;;11.77;;
20423;SDS011;10371;49.042;8.002;2024-01-15T04:43:41;16.63;;;12.60;;
20423;SDS011;10371;49.042;8.002;2024-01-15T04:44:41;17.30;;;11.57;;
20423;SDS011;10371;49.042;8.002;2024-01-15T04:45:41;15.30;;;11.17;;
20423;SDS011;10371;49.042;8.002;2024-01-15T04:46:42;15.60;;;11.03;;
20423;SDS011;10371;49.042;8.002;2024-01-15T04:47:43;15.23;;;11.20;;
20423;SDS011;10371;49.042;8.002;2024-01-15T04:48:44;16.03;;;11.73;;
20423;SDS011;10371;49.042;8.002;2024-01-15T04:49:44;16.70;;;11.23;;
20423;SDS011;10371;49.042;8.002;2024-01-15T04:50:44;15.00;;;10.90;;
20423;SDS011;10371;49.042;8.002;2024-01-15T04:51:44;15.60;;;11.17;;
20423;SDS011;10371;49.042;8.002;2024-01-15T04:52:45;15.10;;;11.20;;
20423;SDS011;10371;49.042;8.002;2024-01-15T04:53:45;15.33;;;11.63;;
20423;SDS011;10371;49.042;8.002;2024-01-15T04:54:45;14.83;;;10.87;;
20423;SDS011;10371;49.042;8.002;2024-01-15T04:55:45;14.50;;;10.43;;
20423;SDS011;10371;49.042;8.002;2024-01-15T04:56:46;15.33;;;11.33;;
20423;SDS011;10371;49.042;8.002;2024-01-15T04:57:46;15.80;;;11.77;;
20423;SDS011;10371;49.042;8.002;2024-01-15T04:58:47;16.27;;;11.70;;
20423;SDS011;10371;49.042;8.002;2024-01-15T04:59:47;14.50;;;11.57;;
20423;SDS011;10371;49.042;8.002;2024-01-15T05:00:47;15.63;;;11.57;;
20423;SDS011;10371;49.042;8.002;2024-01-15T05:01:48;14.83;;;11.23;;
20423;SDS011;10371;49.042;8.002;2024-01-15T05:02:48;15.33;;;11.67;;
20423;SDS011;10371;49.042;8.002;2024-01-15T05:03:49;14.93;;;11.53;;
20423;SDS011;10371;49.042;8.002;2024-01-15T05:04:49;16.80;;;12.70;;
20423;SDS011;10371;49.042;8.002;2024-01-15T05:05:50;19.20;;;13.20;;
20423;SDS011;10371;49.042;8.002;2024-01-15T05:06:50;22.10;;;14.90;;
20423;SDS011;10371;49.042;8.002;2024-01-15T05:07:50;19.33;;;13.33;;
20423;SDS011;10371;49.042;8.002;2024-01-15T05:08:51;18.93;;;13.23;;
20423;SDS011;10371;49.042;8.002;2024-01-15T05:09:51;15.97;;;11.93;;
20423;SDS011;10371;49.042;8.002;2024-01-15T05:10:51;16.73;;;12.10;;
20423;SDS011;10371;49.042;8.002;2024-01-15T05:11:52;16.53;;;11.33;;
20423;SDS011;10371;49.042;8.002;2024-01-15T05:12:52;16.23;;;11.33;;
20423;SDS011;10371;49.042;8.002;2024-01-15T05:13:52;18.00;;;12.00;;
20423;SDS011;10371;49.042;8.002;2024-01-15T05:14:52;16.50;;;12.10;;
20423;SDS011;10371;49.042;8.002;2024-01-15T05:15:53;15.67;;;11.37;;
20423;SDS011;10371;49.042;8.002;2024-01-15T05:16:53;15.10;;;11.67;;
20423;SDS011;10371;49.042;8.002;2024-01-15T05:17:53;17.33;;;12.10;;
20423;SDS011;10371;49.042;8.002;2024-01-15T05:18:54;18.27;;;12.97;;
20423;SDS011;10371;49.042;8.002;2024-01-15T05:19:54;16.90;;;12.57;;
20423;SDS011;10371;49.042;8.002;2024-01-15T05:20:54;16.77;;;11.93;;
20423;SDS011;10371;49.042;8.002;2024-01-15T05:21:54;18.27;;;12.90;;
20423;SDS011;10371;49.042;8.002;2024-01-15T05:22:55;19.27;;;13.13;;
20423;SDS011;10371;49.042;8.002;2024-01-15T05:23:55;23.03;;;16.40;;
20423;SDS011;10371;49.042;8.002;2024-01-15T05:24:55;19.97;;;14.27;;
20423;SDS011;10371;49.042;8.002;2024-01-15T05:25:55;19.80;;;13.27;;
20423;SDS011;10371;49.042;8.002;2024-01-15T05:26:56;18.57;;;14.13;;
20423;SDS011;10371;49.042;8.002;2024-01-15T05:27:56;20.30;;;14.27;;
20423;SDS011;10371;49.042;8.002;2024-01-15T05:28:56;19.30;;;13.00;;
20423;SDS011;10371;49.042;8.002;2024-01-15T05:29:57;16.47;;;12.00;;
20423;SDS011;10371;49.042;8.002;2024-01-15T05:30:57;19.07;;;13.00;;
20423;SDS011;10371;49.042;8.002;2024-01-15T05:31:57;17.60;;;12.80;;
20423;SDS011;10371;49.042;8.002;2024-01-15T05:32:58;17.57;;;13.33;;
20423;SDS011;10371;49.042;8.002;2024-01-15T05:34:00;15.23;;;11.10;;
20423;SDS011;10371;49.042;8.002;2024-01-15T05:35:00;15.80;;;11.40;;
20423;SDS011;10371;49.042;8.002;2024-01-15T05:36:00;18.70;;;13.20;;
20423;SDS011;10371;49.042;8.002;2024-01-15T05:37:00;17.77;;;12.87;;
20423;SDS011;10371;49.042;8.002;2024-01-15T05:38:01;16.77;;;12.33;;
20423;SDS011;10371;49.042;8.002;2024-01-15T05:39:01;17.13;;;12.50;;
20423;SDS011;10371;49.042;8.002;2024-01-15T05:40:03;16.50;;;12.07;;
20423;SDS011;10371;49.042;8.002;2024-01-15T05:41:04;15.93;;;11.87;;
20423;SDS011;10371;49.042;8.002;2024-01-15T05:42:05;14.67;;;11.40;;
20423;SDS011;10371;49.042;8.002;2024-01-15T05:43:06;16.17;;;11.07;;
20423;SDS011;10371;49.042;8.002;2024-01-15T05:44:06;16.43;;;11.47;;
20423;SDS011;10371;49.042;8.002;2024-01-15T05:45:06;13.97;;;10.73;;
20423;SDS011;10371;49.042;8.002;2024-01-15T05:46:07;16.07;;;11.70;;
20423;SDS011;10371;49.042;8.002;2024-01-15T05:47:07;15.00;;;10.70;;
20423;SDS011;10371;49.042;8.002;2024-01-15T05:48:08;14.17;;;11.30;;
20423;SDS011;10371;49.042;8.002;2024-01-15T05:49:08;16.03;;;11.40;;
20423;SDS011;10371;49.042;8.002;2024-01-15T05:50:08;14.73;;;10.77;;
20423;SDS011;10371;49.042;8.002;2024-01-15T05:51:09;14.60;;;10.87;;
20423;SDS011;10371;49.042;8.002;2024-01-15T05:52:10;14.27;;;10.43;;
20423;SDS011;10371;49.042;8.002;2024-01-15T05:53:10;14.03;;;10.13;;